Accueil
METAR-TAF:

METAR-TAF

Aéroports :

Foz do Iguaçu, Paraná, Brésil

latitude: 25-31S, longitude: 054-35W, altitude: 180 m

Observation

Le bulletin a été fait il y a 11 minutes, à 18:00 UTC
Vent 5 kt de est/sud-est
Température 24°C
Humidité 54%
Pression 1021 hPa
Visibilité 10 km ou plus
pas de nuages en-dessous de 1500 mètres et pas de cumulonimbus.

METAR: SBFI 191800Z 12005KT CAVOK 24/14 Q1021

Heure: 15:11 (18:11 UTC)

Prévision

Le bulletin a été fait il y a 2 heures et 41 minutes, à 15:30 UTC
Prévision valable du 19 à 18 UTC au 20 à 18 UTC
Vent 5 kt de est
Visibilité 10 km ou plus
pas de nuages en-dessous de 1500 mètres et pas de cumulonimbus.
Evoluant progressivement
du 19 à 20 UTC au 19 à 22 UTC
Vent 5 kt de est/sud-est
Probabilité 40% :
Temporairement
du 20 à 08 UTC au 20 à 12 UTC
Visibilité: 3000 m
brume

TAF: SBFI 191530Z 1918/2018 09005KT CAVOK TX22/1918Z TN13/2009Z BECMG 1920/1922 12005KT PROB40 TEMPO 2008/2012 3000 BR NSC RMK PEB

Observations et prévisions météorologiques de plus de 4000 aéroports (messages METAR et TAF).

Les stations disponibles sont représentées par des disques jaunes et rouges sur la carte.

Passer la souris dessus pour voir le nom de la station.

Cliquer dessus pour voir les observations et prévisions météorologiques.

Pour changer de carte: cliquez sur les boutons verts avec une croix noire pour zoomer, sur le bouton vert avec un tiret pour effectuer un zoom arrière, ou sur les flèches vertes pour les cartes adjacentes.


METAR-TAF: